Time;durP1;ratioP1;P1;durP2;ratioP2;P2;SDS_P1;SDS_P2;PMS_P1;PMS_P2;Temp;Humidity;BMP_temperature;BMP_pressure;BME280_temperature;BME280_humidity;BME280_pressure;Samples;Min_cycle;Max_cycle;Signal;HPM_P1;HPM_P2
2023/04/28 00:00:40;;;;;;;;;;;;;;;19.23;62.54;99042.81;2085317;28;19929;-50
2023/04/28 00:01:41;;;;;;;;;;;;;;;19.25;62.61;99048.81;2085305;28;19929;-51
2023/04/28 00:02:42;;;;;;;;;;;;;;;19.21;62.50;99037.63;2084751;28;19971;-51
2023/04/28 00:03:43;;;;;;;;;;;;;;;19.22;62.88;99036.56;2075507;28;20568;-50
2023/04/28 00:04:44;;;;;;;;;;;;;;;19.21;62.53;99040.31;2080713;28;19929;-46
2023/04/28 00:05:45;;;;;;;;;;;;;;;19.22;62.61;99041.94;2085121;28;19940;-54
2023/04/28 00:06:47;;;;;;;;;;;;;;;19.22;62.47;99035.75;2083293;28;19941;-54
2023/04/28 00:07:47;;;;;;;;;;;;;;;19.21;62.74;99029.53;2084139;28;19932;-52
2023/04/28 00:08:49;;;;;;;;;;;;;;;19.20;62.59;99038.66;2084984;28;19955;-48
2023/04/28 00:09:49;;;;;;;;;;;;;;;19.22;62.76;99035.75;2082958;28;19931;-48
2023/04/28 00:10:50;;;;;;;;;;;;;;;19.20;62.84;99035.97;2082720;28;19955;-45
2023/04/28 00:11:51;;;;;;;;;;;;;;;19.20;62.75;99034.09;2083486;28;19925;-51
2023/04/28 00:12:54;;;;;;;;;;;;;;;19.19;62.61;99028.91;2083803;28;20420;-51
2023/04/28 00:13:55;;;;;;;;;;;;;;;19.19;62.76;99029.75;2086419;28;19977;-53
2023/04/28 00:14:56;;;;;;;;;;;;;;;19.18;62.66;99024.56;2085290;28;20439;-50
2023/04/28 00:15:58;;;;;;;;;;;;;;;19.17;62.54;99029.13;2086292;28;19929;-53
2023/04/28 00:17:00;;;;;;;;;;;;;;;19.17;62.64;99029.13;2084810;28;20581;-52
2023/04/28 00:18:01;;;;;;;;;;;;;;;19.18;62.92;99032.63;2086230;28;20853;-51
2023/04/28 00:19:02;;;;;;;;;;;;;;;19.18;62.56;99038.84;2085877;28;19928;-52
2023/04/28 00:20:04;;;;;;;;;;;;;;;19.19;62.72;99031.59;2088087;28;19982;-52
2023/04/28 00:21:06;;;;;;;;;;;;;;;19.20;62.52;99039.47;2088357;28;19928;-46
2023/04/28 00:22:06;;;;;;;;;;;;;;;19.17;62.50;99029.13;2087630;28;19929;-45
2023/04/28 00:23:07;;;;;;;;;;;;;;;19.18;62.77;99033.47;2090276;28;19924;-46
2023/04/28 00:24:08;;;;;;;;;;;;;;;19.18;62.69;99030.78;2086771;28;19928;-48
2023/04/28 00:25:09;;;;;;;;;;;;;;;19.18;62.41;99029.94;2087808;28;20341;-45
2023/04/28 00:26:11;;;;;;;;;;;;;;;19.19;62.58;99028.91;2088579;28;19924;-50
2023/04/28 00:27:12;;;;;;;;;;;;;;;19.18;62.58;99029.94;2090100;28;20005;-54
2023/04/28 00:28:14;;;;;;;;;;;;;;;19.19;62.45;99023.53;2089387;28;19966;-48
2023/04/28 00:29:15;;;;;;;;;;;;;;;19.17;62.67;99022.91;2087650;28;20433;-46
2023/04/28 00:30:16;;;;;;;;;;;;;;;19.16;62.69;99026.63;2090074;28;19972;-49
2023/04/28 00:31:18;;;;;;;;;;;;;;;19.16;62.80;99023.94;2089579;28;19982;-50
2023/04/28 00:32:18;;;;;;;;;;;;;;;19.17;62.64;99023.75;2088788;28;19937;-46
2023/04/28 00:33:19;;;;;;;;;;;;;;;19.18;62.40;99030.78;2088468;28;19950;-47
2023/04/28 00:34:20;;;;;;;;;;;;;;;19.15;62.51;99020.41;2084713;28;19956;-49
2023/04/28 00:35:21;;;;;;;;;;;;;;;19.16;62.33;99022.06;2087645;28;21053;-45
2023/04/28 00:36:22;;;;;;;;;;;;;;;19.15;62.41;99024.97;2089940;28;19932;-50
2023/04/28 00:37:23;;;;;;;;;;;;;;;19.17;62.45;99022.91;2089683;28;19933;-50
2023/04/28 00:38:24;;;;;;;;;;;;;;;19.16;62.46;99021.25;2089123;28;19997;-50
2023/04/28 00:39:26;;;;;;;;;;;;;;;19.17;62.58;99025.59;2089483;28;19928;-46
2023/04/28 00:40:31;;;;;;;;;;;;;;;19.16;62.57;99029.31;2087996;28;19937;-53
2023/04/28 00:41:34;;;;;;;;;;;;;;;19.15;62.54;99033.84;2089079;28;19934;-54
2023/04/28 00:42:35;;;;;;;;;;;;;;;19.14;62.37;99024.13;2090171;28;20422;-52
2023/04/28 00:43:45;;;;;;;;;;;;;;;19.14;62.47;99029.53;2088109;27;19928;-48
2023/04/28 00:44:45;;;;;;;;;;;;;;;19.14;62.39;99026.00;2086142;28;19928;-47
2023/04/28 00:45:48;;;;;;;;;;;;;;;19.13;62.71;99035.91;2088600;28;19960;-46
2023/04/28 00:46:49;;;;;;;;;;;;;;;19.13;62.55;99022.47;2088168;28;19981;-51
2023/04/28 00:47:50;;;;;;;;;;;;;;;19.14;62.44;99026.84;2089329;28;19974;-46
2023/04/28 00:48:51;;;;;;;;;;;;;;;19.14;62.57;99026.84;2089024;28;19928;-48
2023/04/28 00:49:52;;;;;;;;;;;;;;;19.14;62.71;99026.84;2090365;28;20452;-51
2023/04/28 00:50:53;;;;;;;;;;;;;;;19.12;62.60;99028.06;2089229;28;20283;-51
2023/04/28 00:51:54;;;;;;;;;;;;;;;19.12;62.67;99028.06;2088469;28;19959;-48
2023/04/28 00:52:55;;;;;;;;;;;;;;;19.12;62.51;99022.69;2089950;28;19925;-52
2023/04/28 00:53:56;;;;;;;;;;;;;;;19.11;62.36;99021.84;2087580;28;19982;-51
2023/04/28 00:54:57;;;;;;;;;;;;;;;19.12;62.62;99014.63;2087904;28;20648;-50
2023/04/28 00:55:58;;;;;;;;;;;;;;;19.11;62.46;99027.22;2089778;28;20043;-48
2023/04/28 00:57:02;;;;;;;;;;;;;;;19.13;62.33;99021.63;2089540;27;20466;-54
2023/04/28 00:58:03;;;;;;;;;;;;;;;19.12;62.49;99014.63;2088338;28;19936;-48
2023/04/28 00:59:05;;;;;;;;;;;;;;;19.12;62.19;99020.81;2088229;28;19932;-55
2023/04/28 01:00:08;;;;;;;;;;;;;;;19.11;62.37;99013.78;2088056;28;19928;-53
2023/04/28 01:01:09;;;;;;;;;;;;;;;19.10;62.39;99016.66;2089953;28;20505;-44
2023/04/28 01:02:15;;;;;;;;;;;;;;;19.12;62.35;99014.63;2088664;28;19925;-51
2023/04/28 01:03:16;;;;;;;;;;;;;;;19.09;62.55;99021.22;2088273;28;20363;-49
2023/04/28 01:04:20;;;;;;;;;;;;;;;19.10;62.38;99022.03;2087105;27;19925;-46
2023/04/28 01:05:20;;;;;;;;;;;;;;;19.09;62.61;99020.38;2087016;28;19997;-51
2023/04/28 01:06:22;;;;;;;;;;;;;;;19.09;62.46;99020.38;2088014;28;20042;-48
2023/04/28 01:07:23;;;;;;;;;;;;;;;19.09;62.55;99021.22;2087541;28;19928;-53
2023/04/28 01:08:24;;;;;;;;;;;;;;;19.08;62.30;99019.53;2088105;28;20610;-51
2023/04/28 01:09:24;;;;;;;;;;;;;;;19.09;62.40;99021.22;2088364;28;19932;-50
2023/04/28 01:10:26;;;;;;;;;;;;;;;19.10;62.42;99019.34;2089169;28;19932;-50
2023/04/28 01:11:26;;;;;;;;;;;;;;;19.11;62.64;99021.00;2087485;28;19978;-45
2023/04/28 01:12:28;;;;;;;;;;;;;;;19.11;62.16;99016.47;2088301;28;19932;-51
2023/04/28 01:13:28;;;;;;;;;;;;;;;19.11;62.43;99019.16;2088039;28;20275;-48
2023/04/28 01:14:32;;;;;;;;;;;;;;;19.09;62.20;99018.53;2084895;28;19944;-47
2023/04/28 01:15:32;;;;;;;;;;;;;;;19.08;62.40;99016.84;2086290;28;20244;-47
2023/04/28 01:16:33;;;;;;;;;;;;;;;19.08;62.68;99019.53;2087018;28;19999;-47
2023/04/28 01:17:35;;;;;;;;;;;;;;;19.08;62.25;99019.53;2079323;28;19943;-54
2023/04/28 01:18:35;;;;;;;;;;;;;;;19.08;62.29;99019.53;2082186;28;19938;-48
2023/04/28 01:19:37;;;;;;;;;;;;;;;19.09;62.21;99021.22;2086547;28;19935;-51
2023/04/28 01:20:37;;;;;;;;;;;;;;;19.08;62.34;99024.09;2087836;28;21252;-54
2023/04/28 01:21:39;;;;;;;;;;;;;;;19.07;62.15;99017.88;2089636;28;19936;-54
2023/04/28 01:22:39;;;;;;;;;;;;;;;19.06;62.56;99021.59;2084242;28;20359;-45
2023/04/28 01:23:41;;;;;;;;;;;;;;;19.07;62.31;99022.44;2086670;28;19934;-48
2023/04/28 01:24:43;;;;;;;;;;;;;;;19.06;62.47;99016.22;2085851;28;19960;-47
2023/04/28 01:25:44;;;;;;;;;;;;;;;19.05;62.16;99027.16;2084850;28;19928;-48
2023/04/28 01:26:45;;;;;;;;;;;;;;;19.05;62.36;99028.00;2086214;28;19937;-54
2023/04/28 01:27:46;;;;;;;;;;;;;;;19.07;62.55;99022.44;2087294;28;20389;-53
2023/04/28 01:28:47;;;;;;;;;;;;;;;19.05;62.23;99019.94;2084417;28;20388;-50
2023/04/28 01:29:48;;;;;;;;;;;;;;;19.08;62.46;99027.59;2087484;28;19936;-47
2023/04/28 01:30:49;;;;;;;;;;;;;;;19.07;62.06;99033.19;2083949;28;20001;-48
2023/04/28 01:31:50;;;;;;;;;;;;;;;19.07;62.40;99030.50;2082702;28;19929;-49
2023/04/28 01:32:50;;;;;;;;;;;;;;;19.05;62.14;99025.31;2083925;28;19986;-45
2023/04/28 01:33:52;;;;;;;;;;;;;;;19.07;62.13;99027.81;2084711;28;20475;-53
2023/04/28 01:34:52;;;;;;;;;;;;;;;19.07;62.28;99027.81;2084631;28;20413;-46
2023/04/28 01:35:57;;;;;;;;;;;;;;;19.05;62.25;99029.84;2086081;28;19928;-49
2023/04/28 01:36:57;;;;;;;;;;;;;;;19.05;62.51;99032.53;2082802;28;20016;-54
2023/04/28 01:37:59;;;;;;;;;;;;;;;19.05;62.15;99022.63;2085542;28;21143;-49
2023/04/28 01:39:00;;;;;;;;;;;;;;;19.05;62.17;99021.78;2083222;28;19968;-51
2023/04/28 01:40:02;;;;;;;;;;;;;;;19.03;62.54;99029.22;2083600;28;20638;-47
2023/04/28 01:41:03;;;;;;;;;;;;;;;19.03;62.16;99026.53;2084340;28;20335;-46
2023/04/28 01:42:05;;;;;;;;;;;;;;;19.03;62.40;99026.53;2083020;28;19987;-52
2023/04/28 01:43:05;;;;;;;;;;;;;;;19.05;61.96;99025.31;2084453;28;20455;-50
2023/04/28 01:44:07;;;;;;;;;;;;;;;19.07;62.04;99033.19;2085910;28;19928;-51
2023/04/28 01:45:08;;;;;;;;;;;;;;;19.05;62.27;99025.31;2084909;28;19973;-44
2023/04/28 01:46:10;;;;;;;;;;;;;;;19.07;62.23;99022.44;2088161;28;20055;-45
2023/04/28 01:47:10;;;;;;;;;;;;;;;19.04;62.28;99020.16;2086268;28;19940;-49
2023/04/28 01:48:11;;;;;;;;;;;;;;;19.03;62.36;99021.16;2087138;28;19970;-47
2023/04/28 01:49:12;;;;;;;;;;;;;;;19.03;62.11;99029.22;2087529;28;19954;-52
2023/04/28 01:50:13;;;;;;;;;;;;;;;19.02;62.05;99020.31;2088189;28;19985;-48
2023/04/28 01:51:14;;;;;;;;;;;;;;;19.02;62.22;99019.50;2084890;28;19928;-51
2023/04/28 01:52:15;;;;;;;;;;;;;;;19.02;62.04;99020.31;2087113;28;19932;-51
2023/04/28 01:53:19;;;;;;;;;;;;;;;19.01;62.04;99021.38;2086042;28;19933;-49
2023/04/28 01:54:20;;;;;;;;;;;;;;;19.03;62.06;99021.16;2087771;28;19931;-52
2023/04/28 01:55:22;;;;;;;;;;;;;;;19.01;62.37;99025.91;2086912;28;20456;-46
2023/04/28 01:56:24;;;;;;;;;;;;;;;19.02;62.25;99024.88;2087933;28;19978;-51
2023/04/28 01:57:24;;;;;;;;;;;;;;;19.01;62.27;99023.22;2088347;28;19933;-47
2023/04/28 01:58:26;;;;;;;;;;;;;;;19.02;62.04;99023.00;2086552;28;20264;-48
2023/04/28 01:59:26;;;;;;;;;;;;;;;19.00;62.16;99018.84;2088416;28;19977;-46
2023/04/28 02:00:28;;;;;;;;;;;;;;;19.01;62.32;99024.06;2084940;28;19978;-49
2023/04/28 02:01:28;;;;;;;;;;;;;;;19.00;62.08;99021.53;2082776;28;19924;-47
2023/04/28 02:02:30;;;;;;;;;;;;;;;19.02;61.80;99019.50;2084475;28;19978;-46
2023/04/28 02:03:30;;;;;;;;;;;;;;;19.03;61.94;99021.16;2084204;28;19932;-49
2023/04/28 02:04:31;;;;;;;;;;;;;;;19.04;62.00;99017.44;2082301;28;19925;-46
2023/04/28 02:05:32;;;;;;;;;;;;;;;19.03;61.93;99018.47;2082895;28;20303;-45
2023/04/28 02:06:33;;;;;;;;;;;;;;;19.01;61.93;99016.00;2083898;28;19933;-46
2023/04/28 02:07:34;;;;;;;;;;;;;;;19.01;61.97;99018.69;2084210;28;19928;-46
2023/04/28 02:08:35;;;;;;;;;;;;;;;19.01;61.97;99015.16;2083300;28;19997;-46
2023/04/28 02:09:36;;;;;;;;;;;;;;;18.98;62.05;99021.75;2082514;27;19967;-45
2023/04/28 02:10:38;;;;;;;;;;;;;;;19.01;61.86;99023.22;2085131;28;20866;-46
2023/04/28 02:11:39;;;;;;;;;;;;;;;19.00;61.86;99022.41;2083214;28;20350;-46
2023/04/28 02:12:41;;;;;;;;;;;;;;;19.01;61.96;99018.69;2082913;28;19928;-46
2023/04/28 02:13:41;;;;;;;;;;;;;;;19.05;61.58;99022.63;2082492;28;19925;-47
2023/04/28 02:14:43;;;;;;;;;;;;;;;19.02;61.95;99022.19;2085275;28;20976;-48
2023/04/28 02:15:43;;;;;;;;;;;;;;;19.02;61.93;99030.25;2083995;28;20059;-46
2023/04/28 02:16:45;;;;;;;;;;;;;;;19.01;61.70;99025.91;2084887;28;19933;-47
2023/04/28 02:17:45;;;;;;;;;;;;;;;18.99;61.80;99020.72;2084666;28;20684;-46
2023/04/28 02:18:47;;;;;;;;;;;;;;;18.97;61.87;99017.38;2085760;28;19940;-48
2023/04/28 02:19:47;;;;;;;;;;;;;;;18.96;62.18;99021.13;2085519;28;20418;-45
2023/04/28 02:20:48;;;;;;;;;;;;;;;18.95;62.12;99031.03;2083273;28;19982;-47
2023/04/28 02:21:49;;;;;;;;;;;;;;;18.98;62.01;99027.13;2084004;28;20228;-46
2023/04/28 02:22:51;;;;;;;;;;;;;;;18.96;61.96;99021.13;2084141;28;19989;-46
2023/04/28 02:23:51;;;;;;;;;;;;;;;18.98;61.67;99027.13;2081040;28;19925;-47
2023/04/28 02:24:52;;;;;;;;;;;;;;;18.96;62.09;99021.13;2084071;28;19978;-46
2023/04/28 02:26:00;;;;;;;;;;;;;;;18.95;61.86;99022.16;2083168;28;19936;-45
2023/04/28 02:27:02;;;;;;;;;;;;;;;18.95;61.82;99030.22;2081177;28;19936;-47
2023/04/28 02:28:02;;;;;;;;;;;;;;;18.94;61.69;99013.28;2084188;28;19989;-47
2023/04/28 02:29:04;;;;;;;;;;;;;;;18.94;62.04;99024.03;2084624;28;19928;-46
2023/04/28 02:30:05;;;;;;;;;;;;;;;18.95;61.83;99014.09;2084124;28;20485;-50
2023/04/28 02:31:07;;;;;;;;;;;;;;;18.93;61.74;99014.28;2083993;28;19970;-47
2023/04/28 02:32:08;;;;;;;;;;;;;;;18.94;61.91;99013.28;2083041;28;20031;-46
2023/04/28 02:33:09;;;;;;;;;;;;;;;18.94;62.05;99023.16;2082149;28;19928;-48
2023/04/28 02:34:10;;;;;;;;;;;;;;;18.94;61.75;99015.94;2083122;28;19983;-46
2023/04/28 02:35:11;;;;;;;;;;;;;;;18.96;61.73;99015.75;2082903;28;19942;-49
2023/04/28 02:36:12;;;;;;;;;;;;;;;18.96;61.51;99021.94;2082863;28;19928;-49
2023/04/28 02:37:13;;;;;;;;;;;;;;;18.94;61.74;99015.94;2086586;28;19931;-46
2023/04/28 02:38:13;;;;;;;;;;;;;;;18.95;61.96;99019.47;2086891;28;20695;-47
2023/04/28 02:39:15;;;;;;;;;;;;;;;18.94;61.86;99024.03;2082015;28;19936;-47
2023/04/28 02:40:15;;;;;;;;;;;;;;;18.91;61.69;99021.69;2086377;28;20505;-48
2023/04/28 02:41:18;;;;;;;;;;;;;;;18.93;61.93;99021.50;2072228;28;19929;-48
2023/04/28 02:42:19;;;;;;;;;;;;;;;18.93;61.66;99022.34;2076129;28;20027;-46
2023/04/28 02:43:21;;;;;;;;;;;;;;;18.95;61.71;99024.84;2071266;28;20005;-46
2023/04/28 02:44:21;;;;;;;;;;;;;;;18.93;61.57;99025.03;2077324;28;20657;-47
2023/04/28 02:45:23;;;;;;;;;;;;;;;18.92;61.98;99022.56;2078462;28;19925;-49
2023/04/28 02:46:23;;;;;;;;;;;;;;;18.92;61.72;99031.44;2085967;28;19986;-48
2023/04/28 02:47:25;;;;;;;;;;;;;;;18.91;61.98;99029.75;2082251;28;19928;-48
2023/04/28 02:48:26;;;;;;;;;;;;;;;18.89;61.65;99025.63;2084943;28;19957;-46
2023/04/28 02:49:27;;;;;;;;;;;;;;;18.91;61.87;99026.25;2083659;28;20049;-47
2023/04/28 02:50:27;;;;;;;;;;;;;;;18.88;62.02;99035.53;2085432;28;19989;-48
2023/04/28 02:51:30;;;;;;;;;;;;;;;18.89;61.91;99029.16;2084989;28;19932;-48
2023/04/28 02:52:30;;;;;;;;;;;;;;;18.89;61.78;99031.00;2084183;28;20023;-47
2023/04/28 02:53:31;;;;;;;;;;;;;;;18.90;61.83;99032.66;2080946;28;19932;-49
2023/04/28 02:54:34;;;;;;;;;;;;;;;18.89;61.91;99031.00;2082190;28;20049;-48
2023/04/28 02:55:35;;;;;;;;;;;;;;;18.87;61.96;99038.44;2083560;28;20015;-47
2023/04/28 02:56:39;;;;;;;;;;;;;;;18.86;61.87;99026.00;2083637;28;20941;-50
2023/04/28 02:57:41;;;;;;;;;;;;;;;18.85;61.78;99029.72;2083697;28;19939;-46
2023/04/28 02:58:41;;;;;;;;;;;;;;;18.88;61.87;99029.31;2085094;28;19978;-47
2023/04/28 02:59:43;;;;;;;;;;;;;;;18.89;61.73;99031.84;2081111;28;19935;-47
2023/04/28 03:00:43;;;;;;;;;;;;;;;18.87;61.86;99031.19;2083538;28;19936;-46
2023/04/28 03:01:44;;;;;;;;;;;;;;;18.89;61.64;99031.84;2084174;28;19929;-48
2023/04/28 03:02:45;;;;;;;;;;;;;;;18.90;61.55;99038.03;2085541;28;20613;-49
2023/04/28 03:03:46;;;;;;;;;;;;;;;18.89;61.88;99033.69;2086381;28;19928;-48
2023/04/28 03:04:47;;;;;;;;;;;;;;;18.89;61.57;99042.59;2079389;28;19936;-46
2023/04/28 03:05:48;;;;;;;;;;;;;;;18.90;61.57;99038.03;2083797;28;19932;-45
2023/04/28 03:06:49;;;;;;;;;;;;;;;18.91;61.50;99039.69;2083846;28;20015;-46
2023/04/28 03:07:51;;;;;;;;;;;;;;;18.89;61.73;99037.22;2084677;28;19925;-47
2023/04/28 03:08:51;;;;;;;;;;;;;;;18.87;61.92;99044.63;2083790;28;19966;-45
2023/04/28 03:09:53;;;;;;;;;;;;;;;18.86;61.85;99042.97;2084394;28;20002;-47
2023/04/28 03:10:53;;;;;;;;;;;;;;;18.86;61.92;99037.59;2083436;28;19974;-47
2023/04/28 03:11:56;;;;;;;;;;;;;;;18.83;61.63;99039.81;2082194;28;20448;-47
2023/04/28 03:12:56;;;;;;;;;;;;;;;18.81;61.73;99034.66;2084607;28;19932;-47
2023/04/28 03:13:58;;;;;;;;;;;;;;;18.81;61.76;99040.03;2083731;28;19925;-48
2023/04/28 03:14:58;;;;;;;;;;;;;;;18.81;61.81;99042.72;2081755;28;20013;-49
2023/04/28 03:15:59;;;;;;;;;;;;;;;18.81;61.70;99040.03;2085292;28;19936;-46
2023/04/28 03:17:00;;;;;;;;;;;;;;;18.79;61.65;99039.41;2081534;28;19932;-47
2023/04/28 03:18:01;;;;;;;;;;;;;;;18.80;61.90;99038.34;2085520;28;19933;-46
2023/04/28 03:19:02;;;;;;;;;;;;;;;18.81;61.78;99040.03;2085560;28;19928;-47
2023/04/28 03:20:03;;;;;;;;;;;;;;;18.82;61.87;99043.56;2084765;28;19981;-47
2023/04/28 03:21:04;;;;;;;;;;;;;;;18.84;61.67;99044.19;2082719;28;20001;-48
2023/04/28 03:22:06;;;;;;;;;;;;;;;18.82;61.46;99047.06;2083673;28;20350;-46
2023/04/28 03:23:06;;;;;;;;;;;;;;;18.84;61.75;99050.41;2082757;28;19933;-46
2023/04/28 03:24:08;;;;;;;;;;;;;;;18.83;61.43;99043.34;2084792;28;20035;-49
2023/04/28 03:25:08;;;;;;;;;;;;;;;18.84;61.49;99045.03;2079931;28;19932;-48
2023/04/28 03:26:10;;;;;;;;;;;;;;;18.81;61.57;99045.41;2083686;28;21817;-49
2023/04/28 03:27:12;;;;;;;;;;;;;;;18.79;61.43;99047.47;2088643;28;19925;-48
2023/04/28 03:28:13;;;;;;;;;;;;;;;18.80;61.64;99042.91;2085340;28;19929;-46
2023/04/28 03:29:14;;;;;;;;;;;;;;;18.80;61.46;99046.41;2085893;28;19925;-48
2023/04/28 03:30:15;;;;;;;;;;;;;;;18.80;61.80;99048.28;2085882;28;20449;-50
2023/04/28 03:31:15;;;;;;;;;;;;;;;18.78;62.04;99045.81;2084110;28;19958;-46
2023/04/28 03:32:17;;;;;;;;;;;;;;;18.77;61.79;99044.13;2086369;28;20500;-46
2023/04/28 03:33:17;;;;;;;;;;;;;;;18.76;61.65;99045.16;2083708;28;20023;-48
2023/04/28 03:34:19;;;;;;;;;;;;;;;18.77;61.86;99044.13;2085420;28;19929;-47
2023/04/28 03:35:19;;;;;;;;;;;;;;;18.78;61.79;99045.81;2085763;28;19928;-48
2023/04/28 03:36:21;;;;;;;;;;;;;;;18.78;61.52;99042.25;2084925;28;21039;-47
2023/04/28 03:37:21;;;;;;;;;;;;;;;18.79;61.87;99042.09;2085763;28;20416;-48
2023/04/28 03:38:23;;;;;;;;;;;;;;;18.79;61.92;99042.09;2084879;28;19971;-46
2023/04/28 03:39:23;;;;;;;;;;;;;;;18.77;61.80;99040.63;2076740;28;20032;-46
2023/04/28 03:40:25;;;;;;;;;;;;;;;18.77;61.82;99038.75;2080958;28;19928;-47
2023/04/28 03:41:25;;;;;;;;;;;;;;;18.77;61.75;99040.63;2086507;28;19925;-46
2023/04/28 03:42:28;;;;;;;;;;;;;;;18.77;61.78;99046.00;2084071;28;19932;-49
2023/04/28 03:43:28;;;;;;;;;;;;;;;18.76;61.67;99042.47;2082354;28;20057;-46
2023/04/28 03:44:30;;;;;;;;;;;;;;;18.75;61.78;99046.19;2083831;28;19924;-48
2023/04/28 03:45:30;;;;;;;;;;;;;;;18.76;61.55;99045.16;2080890;28;20555;-45
2023/04/28 03:46:33;;;;;;;;;;;;;;;18.75;61.50;99047.03;2085485;28;19933;-47
2023/04/28 03:47:34;;;;;;;;;;;;;;;18.74;61.55;99050.72;2082179;28;19933;-46
2023/04/28 03:48:35;;;;;;;;;;;;;;;18.76;61.50;99053.22;2081354;28;20039;-49
2023/04/28 03:49:35;;;;;;;;;;;;;;;18.73;61.66;99049.03;2083843;28;19994;-49
2023/04/28 03:50:39;;;;;;;;;;;;;;;18.73;61.57;99045.53;2084906;28;19940;-46
2023/04/28 03:51:40;;;;;;;;;;;;;;;18.74;61.43;99045.34;2083534;28;19936;-49
2023/04/28 03:52:41;;;;;;;;;;;;;;;18.74;61.65;99045.34;2082141;28;19924;-48
2023/04/28 03:53:42;;;;;;;;;;;;;;;18.75;61.43;99048.88;2081679;28;20391;-48
2023/04/28 03:54:43;;;;;;;;;;;;;;;18.73;61.50;99043.66;2082281;28;19940;-46
2023/04/28 03:55:43;;;;;;;;;;;;;;;18.74;61.39;99049.88;2081406;28;20002;-47
2023/04/28 03:56:45;;;;;;;;;;;;;;;18.72;61.28;99041.16;2083403;28;19928;-46
2023/04/28 03:57:47;;;;;;;;;;;;;;;18.76;61.62;99053.22;2083806;28;19935;-49
2023/04/28 03:58:48;;;;;;;;;;;;;;;18.75;61.32;99055.09;2082672;28;20092;-45
2023/04/28 03:59:49;;;;;;;;;;;;;;;18.74;61.52;99049.88;2081890;28;19932;-48
2023/04/28 04:00:51;;;;;;;;;;;;;;;18.74;61.27;99055.25;2085530;28;20032;-47
2023/04/28 04:01:51;;;;;;;;;;;;;;;18.74;61.43;99056.09;2084173;28;19936;-46
2023/04/28 04:02:53;;;;;;;;;;;;;;;18.75;61.15;99056.94;2081963;28;20160;-49
2023/04/28 04:03:53;;;;;;;;;;;;;;;18.73;61.58;99053.59;2085279;28;19929;-48
2023/04/28 04:04:55;;;;;;;;;;;;;;;18.73;61.25;99056.28;2083436;28;20590;-49
2023/04/28 04:05:55;;;;;;;;;;;;;;;18.72;61.45;99057.28;2086279;28;19929;-46
2023/04/28 04:06:57;;;;;;;;;;;;;;;18.71;61.33;99051.06;2087380;28;19928;-47
2023/04/28 04:07:57;;;;;;;;;;;;;;;18.71;61.36;99051.06;2085777;28;19937;-45
2023/04/28 04:08:59;;;;;;;;;;;;;;;18.73;61.20;99056.28;2083015;28;19933;-47
2023/04/28 04:09:59;;;;;;;;;;;;;;;18.72;61.30;99057.28;2085425;28;19998;-46
2023/04/28 04:11:01;;;;;;;;;;;;;;;18.72;61.21;99059.97;2085856;28;19928;-48
2023/04/28 04:12:01;;;;;;;;;;;;;;;18.73;61.25;99065.16;2087145;28;19929;-46
2023/04/28 04:13:04;;;;;;;;;;;;;;;18.73;61.57;99067.84;2087167;28;19928;-46
2023/04/28 04:14:05;;;;;;;;;;;;;;;18.72;61.51;99059.97;2085221;28;20689;-47
2023/04/28 04:15:07;;;;;;;;;;;;;;;18.72;61.04;99060.81;2085414;28;20094;-45
2023/04/28 04:16:07;;;;;;;;;;;;;;;18.72;61.19;99060.81;2087124;28;19977;-47
2023/04/28 04:17:09;;;;;;;;;;;;;;;18.71;61.22;99058.31;2087083;28;19932;-46
2023/04/28 04:18:10;;;;;;;;;;;;;;;18.70;61.40;99059.34;2084828;28;20439;-47
2023/04/28 04:19:11;;;;;;;;;;;;;;;18.69;61.69;99061.22;2087792;28;19982;-47
2023/04/28 04:20:12;;;;;;;;;;;;;;;18.69;61.46;99069.28;2087334;28;20016;-47
2023/04/28 04:21:13;;;;;;;;;;;;;;;18.69;61.35;99069.28;2085286;28;19928;-54
2023/04/28 04:22:13;;;;;;;;;;;;;;;18.69;61.44;99074.66;2086609;28;19924;-47
2023/04/28 04:23:15;;;;;;;;;;;;;;;18.69;61.53;99076.47;2085755;28;19942;-51
2023/04/28 04:24:15;;;;;;;;;;;;;;;18.70;61.40;99070.09;2085117;28;19928;-48
2023/04/28 04:25:17;;;;;;;;;;;;;;;18.68;61.41;99074.81;2086054;28;19990;-48
2023/04/28 04:26:17;;;;;;;;;;;;;;;18.69;61.27;99074.66;2084344;28;19929;-51
2023/04/28 04:27:19;;;;;;;;;;;;;;;18.72;61.26;99076.09;2086631;28;19928;-48
2023/04/28 04:28:21;;;;;;;;;;;;;;;18.70;61.46;99070.91;2084896;28;19970;-51
2023/04/28 04:29:22;;;;;;;;;;;;;;;18.68;61.18;99067.59;2087985;28;19929;-48
2023/04/28 04:30:22;;;;;;;;;;;;;;;18.68;61.44;99066.75;2084666;28;19997;-51
2023/04/28 04:31:24;;;;;;;;;;;;;;;18.69;61.22;99063.03;2086563;28;19935;-47
2023/04/28 04:32:25;;;;;;;;;;;;;;;18.67;61.26;99057.88;2086833;28;19929;-48
2023/04/28 04:33:26;;;;;;;;;;;;;;;18.67;61.17;99063.25;2086429;28;19933;-52
2023/04/28 04:34:27;;;;;;;;;;;;;;;18.70;61.25;99060.19;2085000;28;19968;-50
2023/04/28 04:35:28;;;;;;;;;;;;;;;18.69;61.13;99057.66;2086330;28;19936;-47
2023/04/28 04:36:29;;;;;;;;;;;;;;;18.69;61.14;99061.22;2084257;28;19941;-52
2023/04/28 04:37:30;;;;;;;;;;;;;;;18.69;61.12;99063.91;2086192;28;20831;-48
2023/04/28 04:38:31;;;;;;;;;;;;;;;18.68;61.03;99069.44;2085134;28;19928;-51
2023/04/28 04:39:32;;;;;;;;;;;;;;;18.67;61.10;99057.88;2076066;28;19924;-50
2023/04/28 04:40:32;;;;;;;;;;;;;;;18.67;61.29;99057.06;2082493;28;19929;-49
2023/04/28 04:41:34;;;;;;;;;;;;;;;18.65;61.15;99061.78;2084803;28;19929;-48
2023/04/28 04:42:34;;;;;;;;;;;;;;;18.67;61.01;99065.13;2085092;28;19932;-52
2023/04/28 04:43:37;;;;;;;;;;;;;;;18.67;61.30;99062.44;2082320;28;20240;-48
2023/04/28 04:44:38;;;;;;;;;;;;;;;18.67;61.26;99055.19;2083167;28;19940;-50
2023/04/28 04:45:39;;;;;;;;;;;;;;;18.68;61.06;99064.06;2081476;28;19933;-50
2023/04/28 04:46:39;;;;;;;;;;;;;;;18.68;61.04;99064.06;2082949;28;19940;-48
2023/04/28 04:47:41;;;;;;;;;;;;;;;18.68;60.85;99062.22;2083229;28;19932;-48
2023/04/28 04:48:42;;;;;;;;;;;;;;;18.69;61.00;99061.22;2085119;28;20087;-44
2023/04/28 04:49:43;;;;;;;;;;;;;;;18.67;61.18;99057.88;2081935;28;20129;-45
2023/04/28 04:50:44;;;;;;;;;;;;;;;18.65;61.23;99059.91;2082842;28;20016;-48
2023/04/28 04:51:45;;;;;;;;;;;;;;;18.64;61.26;99060.13;2080628;28;20562;-49
2023/04/28 04:52:45;;;;;;;;;;;;;;;18.65;60.93;99062.59;2083648;28;19936;-46
2023/04/28 04:53:47;;;;;;;;;;;;;;;18.66;61.03;99052.69;2082187;28;20163;-47
2023/04/28 04:54:47;;;;;;;;;;;;;;;18.67;61.15;99057.06;2080470;28;19998;-48
2023/04/28 04:55:49;;;;;;;;;;;;;;;18.67;61.00;99054.38;2081015;28;20805;-52
2023/04/28 04:56:50;;;;;;;;;;;;;;;18.64;60.90;99044.84;2081815;28;19932;-52
2023/04/28 04:57:51;;;;;;;;;;;;;;;18.64;61.25;99049.38;2083311;28;19963;-51
2023/04/28 04:58:53;;;;;;;;;;;;;;;18.65;61.21;99051.84;2083460;28;19924;-47
2023/04/28 04:59:54;;;;;;;;;;;;;;;18.66;60.78;99050.81;2083693;28;19925;-50
2023/04/28 05:00:55;;;;;;;;;;;;;;;18.65;61.14;99056.41;2082191;28;19925;-51
2023/04/28 05:01:56;;;;;;;;;;;;;;;18.62;61.00;99049.56;2083819;28;19983;-50
2023/04/28 05:02:57;;;;;;;;;;;;;;;18.64;60.86;99052.91;2081109;28;19936;-51
2023/04/28 05:03:58;;;;;;;;;;;;;;;18.64;60.92;99060.94;2085266;28;19931;-53
2023/04/28 05:04:59;;;;;;;;;;;;;;;18.66;60.98;99063.44;2084569;28;20532;-49
2023/04/28 05:06:01;;;;;;;;;;;;;;;18.63;60.94;99059.28;2083070;28;20610;-49
2023/04/28 05:07:02;;;;;;;;;;;;;;;18.65;61.21;99067.16;2084776;28;19947;-49
2023/04/28 05:08:04;;;;;;;;;;;;;;;18.64;60.95;99073.56;2086155;28;20256;-46
2023/04/28 05:09:05;;;;;;;;;;;;;;;18.65;61.03;99069.84;2088099;28;19936;-48
2023/04/28 05:10:07;;;;;;;;;;;;;;;18.64;60.95;99074.38;2087684;28;19932;-45
2023/04/28 05:11:07;;;;;;;;;;;;;;;18.63;60.99;99077.25;2084911;28;20047;-48
2023/04/28 05:12:09;;;;;;;;;;;;;;;18.64;60.88;99082.44;2084926;28;20010;-51
2023/04/28 05:13:09;;;;;;;;;;;;;;;18.62;61.14;99078.28;2084679;28;19993;-48
2023/04/28 05:14:12;;;;;;;;;;;;;;;18.64;60.84;99087.81;2087503;28;19929;-46
2023/04/28 05:15:12;;;;;;;;;;;;;;;18.62;60.91;99092.56;2081698;28;19970;-47
2023/04/28 05:16:14;;;;;;;;;;;;;;;18.62;61.15;99097.09;2086583;28;19963;-49
2023/04/28 05:17:14;;;;;;;;;;;;;;;18.60;61.09;99094.59;2084984;28;19997;-45
2023/04/28 05:18:16;;;;;;;;;;;;;;;18.62;60.86;99099.78;2085110;28;19929;-48
2023/04/28 05:19:16;;;;;;;;;;;;;;;18.60;61.04;99097.28;2085125;28;19933;-48